Time;durP1;ratioP1;P1;durP2;ratioP2;P2;SDS_P1;SDS_P2;PMS_P1;PMS_P2;Temp;Humidity;BMP_temperature;BMP_pressure;BME280_temperature;BME280_humidity;BME280_pressure;Samples;Min_cycle;Max_cycle;Signal;HPM_P1;HPM_P2
2022/01/04 00:00:24;;;;;;;;;;;10.80;95.00;;;;;;4992912;28;19910;-89
2022/01/04 00:02:51;;;;;;;;;;;10.80;95.00;;;;;;4985895;28;19948;-89
2022/01/04 00:05:18;;;;;;;;;;;10.80;95.00;;;;;;4999209;28;19914;-88
2022/01/04 00:07:45;;;;;;;;;;;10.80;95.10;;;;;;4986620;28;19918;-88
2022/01/04 00:10:12;;;;;;;;;;;10.80;95.10;;;;;;4983809;28;20339;-89
2022/01/04 00:15:43;;;;;;;;;;;10.70;95.00;;;;;;4921910;29;19946;-89
2022/01/04 00:18:10;;;;;;;;;;;10.70;95.10;;;;;;4968394;28;20107;-89
2022/01/04 00:20:37;;;;;;;;;;;10.80;95.10;;;;;;5001564;28;19917;-89
2022/01/04 00:23:04;;;;;;;;;;;10.70;95.10;;;;;;4995908;28;19928;-89
2022/01/04 00:25:31;;;;;;;;;;;10.70;95.10;;;;;;4994217;28;19921;-89
2022/01/04 00:28:00;;;;;;;;;;;10.70;95.10;;;;;;4982130;28;19914;-89
2022/01/04 00:30:28;;;;;;;;;;;10.70;95.10;;;;;;4983571;28;19914;-89
2022/01/04 00:32:55;;;;;;;;;;;10.70;95.20;;;;;;4985563;28;20143;-89
2022/01/04 00:35:22;;;;;;;;;;;10.70;95.20;;;;;;4985144;28;20032;-89
2022/01/04 00:37:49;;;;;;;;;;;10.70;95.20;;;;;;4996387;28;19913;-89
2022/01/04 00:40:16;;;;;;;;;;;10.70;95.20;;;;;;4997913;28;19914;-89
2022/01/04 00:42:43;;;;;;;;;;;10.60;95.10;;;;;;4985680;28;19914;-89
2022/01/04 00:45:10;;;;;;;;;;;10.70;95.10;;;;;;4987261;28;20183;-90
2022/01/04 00:50:28;;;;;;;;;;;10.70;95.20;;;;;;4976659;28;19913;-89
2022/01/04 00:52:56;;;;;;;;;;;10.60;95.10;;;;;;4986138;28;20413;-89
2022/01/04 00:55:23;;;;;;;;;;;10.60;95.20;;;;;;4988417;28;20313;-89
2022/01/04 00:57:50;;;;;;;;;;;10.60;95.20;;;;;;4986197;28;19943;-89
2022/01/04 01:00:17;;;;;;;;;;;10.60;95.10;;;;;;4984244;28;19941;-89
2022/01/04 01:02:44;;;;;;;;;;;10.60;95.10;;;;;;4977418;28;19922;-88
2022/01/04 01:05:12;;;;;;;;;;;10.60;95.20;;;;;;4994870;28;19918;-89
2022/01/04 01:07:38;;;;;;;;;;;10.60;95.10;;;;;;4990769;28;19921;-89
2022/01/04 01:12:42;;;;;;;;;;;10.50;95.10;;;;;;4989693;28;19917;-89
2022/01/04 01:15:09;;;;;;;;;;;10.50;95.20;;;;;;4990958;28;19913;-89
2022/01/04 01:17:36;;;;;;;;;;;10.50;95.20;;;;;;4976959;28;19918;-89
2022/01/04 01:20:04;;;;;;;;;;;10.50;95.20;;;;;;4984163;28;20409;-89
2022/01/04 01:22:31;;;;;;;;;;;10.50;95.20;;;;;;4984417;28;20430;-89
2022/01/04 01:24:58;;;;;;;;;;;10.50;95.20;;;;;;5005764;28;20144;-89
2022/01/04 01:27:25;;;;;;;;;;;10.50;95.20;;;;;;4990690;28;20282;-89
2022/01/04 01:29:52;;;;;;;;;;;10.50;95.30;;;;;;4983903;28;19914;-89
2022/01/04 01:32:19;;;;;;;;;;;10.50;95.20;;;;;;4979048;28;20393;-89
2022/01/04 01:34:45;;;;;;;;;;;10.50;95.20;;;;;;4968200;28;20034;-89
2022/01/04 01:37:12;;;;;;;;;;;10.50;95.30;;;;;;4995883;28;20256;-89
2022/01/04 01:39:39;;;;;;;;;;;10.50;95.30;;;;;;4984190;28;20411;-89
2022/01/04 01:42:06;;;;;;;;;;;10.50;95.30;;;;;;4990961;28;19920;-89
2022/01/04 01:44:34;;;;;;;;;;;10.50;95.60;;;;;;4979241;28;19919;-89
2022/01/04 01:47:02;;;;;;;;;;;10.50;95.30;;;;;;4996017;28;20218;-89
2022/01/04 01:49:29;;;;;;;;;;;10.50;95.40;;;;;;4976482;28;19936;-89
2022/01/04 01:51:56;;;;;;;;;;;10.50;95.40;;;;;;4979608;28;19923;-89
2022/01/04 01:54:23;;;;;;;;;;;10.60;95.50;;;;;;4998540;28;20293;-89
2022/01/04 01:56:50;;;;;;;;;;;10.60;95.50;;;;;;4989174;28;19936;-89
2022/01/04 01:59:17;;;;;;;;;;;10.60;95.50;;;;;;4977899;28;19914;-89
2022/01/04 02:01:44;;;;;;;;;;;10.60;95.40;;;;;;4985413;28;20117;-88
2022/01/04 02:04:11;;;;;;;;;;;10.60;95.40;;;;;;4971433;28;20326;-89
2022/01/04 02:06:38;;;;;;;;;;;10.60;95.40;;;;;;4984260;28;19928;-88
2022/01/04 02:09:05;;;;;;;;;;;10.60;95.40;;;;;;4995428;28;20400;-89
2022/01/04 02:11:32;;;;;;;;;;;10.60;95.40;;;;;;4987107;28;19933;-88
2022/01/04 02:13:59;;;;;;;;;;;10.60;95.50;;;;;;4982992;28;20285;-88
2022/01/04 02:16:27;;;;;;;;;;;10.60;95.50;;;;;;4987754;28;19928;-88
2022/01/04 02:19:04;;;;;;;;;;;10.60;95.50;;;;;;4962354;28;19995;-88
2022/01/04 02:21:31;;;;;;;;;;;10.60;95.50;;;;;;4972580;28;20363;-88
2022/01/04 02:23:59;;;;;;;;;;;10.60;95.50;;;;;;4984262;28;20018;-89
2022/01/04 02:26:26;;;;;;;;;;;10.60;95.50;;;;;;4989863;28;19913;-88
2022/01/04 02:28:53;;;;;;;;;;;10.70;95.50;;;;;;4993799;28;19913;-88
2022/01/04 02:31:20;;;;;;;;;;;10.60;95.50;;;;;;4989075;28;20368;-89
2022/01/04 02:33:47;;;;;;;;;;;10.60;95.50;;;;;;4977960;28;20323;-88
2022/01/04 02:36:14;;;;;;;;;;;10.60;95.40;;;;;;4971621;28;19917;-88
2022/01/04 02:38:41;;;;;;;;;;;10.60;95.40;;;;;;4993487;28;19914;-88
2022/01/04 02:41:08;;;;;;;;;;;10.60;95.40;;;;;;4981665;28;19927;-88
2022/01/04 02:43:35;;;;;;;;;;;10.60;95.40;;;;;;4971517;28;20303;-88
2022/01/04 02:46:01;;;;;;;;;;;10.60;95.40;;;;;;4971683;28;19928;-89
2022/01/04 02:48:28;;;;;;;;;;;10.60;95.40;;;;;;4974133;28;20260;-88
2022/01/04 02:50:56;;;;;;;;;;;10.60;95.40;;;;;;4966676;28;19922;-88
2022/01/04 02:53:23;;;;;;;;;;;10.60;95.40;;;;;;4974616;28;20386;-89
2022/01/04 02:55:49;;;;;;;;;;;10.60;95.50;;;;;;4964443;28;19954;-88
2022/01/04 02:58:16;;;;;;;;;;;10.60;95.50;;;;;;4964933;28;20282;-88
2022/01/04 03:00:45;;;;;;;;;;;10.70;95.50;;;;;;4974351;28;20011;-89
2022/01/04 03:03:12;;;;;;;;;;;10.60;95.50;;;;;;4971055;28;19914;-88
2022/01/04 03:05:38;;;;;;;;;;;10.70;95.50;;;;;;4952611;28;19922;-88
2022/01/04 03:08:05;;;;;;;;;;;10.70;95.50;;;;;;4975762;28;19936;-87
2022/01/04 03:10:32;;;;;;;;;;;10.60;95.40;;;;;;4973270;28;19931;-88
2022/01/04 03:12:59;;;;;;;;;;;10.60;95.40;;;;;;4966114;28;19944;-88
2022/01/04 03:15:26;;;;;;;;;;;10.60;95.40;;;;;;4972972;28;19918;-88
2022/01/04 03:17:53;;;;;;;;;;;10.60;95.40;;;;;;4957736;28;19914;-88
2022/01/04 03:20:19;;;;;;;;;;;10.60;95.40;;;;;;5004376;28;19920;-88
2022/01/04 03:22:46;;;;;;;;;;;10.60;95.40;;;;;;4957314;28;20129;-87
2022/01/04 03:25:13;;;;;;;;;;;10.60;95.40;;;;;;4969579;28;19982;-88
2022/01/04 03:27:40;;;;;;;;;;;10.60;95.40;;;;;;4961426;28;19914;-88
2022/01/04 03:30:07;;;;;;;;;;;10.60;95.40;;;;;;4978216;28;20423;-88
2022/01/04 03:32:34;;;;;;;;;;;10.60;95.30;;;;;;4972428;28;19921;-88
2022/01/04 03:35:01;;;;;;;;;;;10.60;95.40;;;;;;4995205;28;19926;-88
2022/01/04 03:37:28;;;;;;;;;;;10.60;95.30;;;;;;4988603;28;19920;-88
2022/01/04 03:39:55;;;;;;;;;;;10.60;95.30;;;;;;4999248;28;20096;-89
2022/01/04 03:42:21;;;;;;;;;;;10.60;95.30;;;;;;4985468;28;20404;-88
2022/01/04 03:44:48;;;;;;;;;;;10.60;95.40;;;;;;4991330;28;19921;-89
2022/01/04 03:47:15;;;;;;;;;;;10.60;95.40;;;;;;4996911;28;19922;-89
2022/01/04 03:49:42;;;;;;;;;;;10.60;95.40;;;;;;4979877;28;20092;-88
2022/01/04 03:52:09;;;;;;;;;;;10.60;95.40;;;;;;4985714;28;19914;-88
2022/01/04 03:54:36;;;;;;;;;;;10.60;95.40;;;;;;4991177;28;20436;-89
2022/01/04 03:57:03;;;;;;;;;;;10.60;95.40;;;;;;5000385;28;19944;-89
2022/01/04 03:59:29;;;;;;;;;;;10.60;95.40;;;;;;4992174;28;19920;-89
2022/01/04 04:01:56;;;;;;;;;;;10.60;95.40;;;;;;4985813;28;19939;-88
2022/01/04 04:04:25;;;;;;;;;;;10.60;95.40;;;;;;4988757;28;19917;-89
2022/01/04 04:06:52;;;;;;;;;;;10.60;95.40;;;;;;4974385;28;19921;-88
2022/01/04 04:09:19;;;;;;;;;;;10.50;95.40;;;;;;5001322;28;19913;-88
2022/01/04 04:11:45;;;;;;;;;;;10.50;95.40;;;;;;4993246;28;19918;-88
2022/01/04 04:14:12;;;;;;;;;;;10.50;95.40;;;;;;4984899;28;20543;-88
2022/01/04 04:16:39;;;;;;;;;;;10.60;95.40;;;;;;4986769;28;19917;-88
2022/01/04 04:19:06;;;;;;;;;;;10.50;95.40;;;;;;4994038;28;19913;-89
2022/01/04 04:21:33;;;;;;;;;;;10.50;95.40;;;;;;4982241;28;19913;-88
2022/01/04 04:24:00;;;;;;;;;;;10.50;95.40;;;;;;4991986;28;20406;-88
2022/01/04 04:26:26;;;;;;;;;;;10.50;95.40;;;;;;4994168;28;19920;-88
2022/01/04 04:28:53;;;;;;;;;;;10.50;95.30;;;;;;4984368;28;20566;-88
2022/01/04 04:31:20;;;;;;;;;;;10.50;95.30;;;;;;4988972;28;19913;-88
2022/01/04 04:33:47;;;;;;;;;;;10.50;95.30;;;;;;4977355;28;19922;-88
2022/01/04 04:36:14;;;;;;;;;;;10.50;95.40;;;;;;4990426;28;19925;-88
2022/01/04 04:38:41;;;;;;;;;;;10.50;95.40;;;;;;4983977;28;19921;-88
2022/01/04 04:41:08;;;;;;;;;;;10.50;95.40;;;;;;4981860;28;19917;-89
2022/01/04 04:43:35;;;;;;;;;;;10.50;95.40;;;;;;4984508;28;19914;-88
2022/01/04 04:46:02;;;;;;;;;;;10.50;95.40;;;;;;4989465;28;20369;-89
2022/01/04 04:48:29;;;;;;;;;;;10.50;95.50;;;;;;4989376;28;20345;-89
2022/01/04 04:50:56;;;;;;;;;;;10.50;95.50;;;;;;4980299;28;19922;-87
2022/01/04 04:53:22;;;;;;;;;;;10.50;95.40;;;;;;4986457;28;20328;-89
2022/01/04 04:55:49;;;;;;;;;;;10.50;95.40;;;;;;4982252;28;19928;-89
2022/01/04 04:58:17;;;;;;;;;;;10.50;95.40;;;;;;4992881;28;19914;-88
2022/01/04 05:00:43;;;;;;;;;;;10.50;95.50;;;;;;4989686;28;19917;-88
2022/01/04 05:03:10;;;;;;;;;;;10.50;95.50;;;;;;4995851;28;19910;-88
2022/01/04 05:05:37;;;;;;;;;;;10.50;95.50;;;;;;4979163;28;19914;-89
2022/01/04 05:08:04;;;;;;;;;;;10.50;95.40;;;;;;4984817;28;20294;-88
2022/01/04 05:10:31;;;;;;;;;;;10.50;95.40;;;;;;4999514;28;20259;-88
2022/01/04 05:12:58;;;;;;;;;;;10.50;95.40;;;;;;4995585;28;20042;-88
2022/01/04 05:15:25;;;;;;;;;;;10.40;95.30;;;;;;4996494;28;19924;-88
2022/01/04 05:17:52;;;;;;;;;;;10.40;95.30;;;;;;4981890;28;19913;-88
2022/01/04 05:20:19;;;;;;;;;;;10.50;95.40;;;;;;4992761;28;19914;-88
2022/01/04 05:22:46;;;;;;;;;;;10.40;95.40;;;;;;4980365;28;19940;-88
2022/01/04 05:25:12;;;;;;;;;;;10.40;95.30;;;;;;4990117;28;20397;-88
2022/01/04 05:27:39;;;;;;;;;;;10.40;95.30;;;;;;4983243;28;19914;-88
2022/01/04 05:30:06;;;;;;;;;;;10.40;95.30;;;;;;4980052;28;19913;-88
2022/01/04 05:32:33;;;;;;;;;;;10.40;95.30;;;;;;4996268;28;19914;-88
2022/01/04 05:35:00;;;;;;;;;;;10.40;95.40;;;;;;5010674;28;20248;-88
2022/01/04 05:37:27;;;;;;;;;;;10.40;95.30;;;;;;4995362;28;19924;-88
2022/01/04 05:39:54;;;;;;;;;;;10.40;95.30;;;;;;4979323;28;20099;-88
2022/01/04 05:42:21;;;;;;;;;;;10.50;95.40;;;;;;4991122;28;19913;-88
2022/01/04 05:44:50;;;;;;;;;;;10.50;95.50;;;;;;4986673;28;20903;-88
2022/01/04 05:47:16;;;;;;;;;;;10.50;95.40;;;;;;4996616;28;19927;-87
2022/01/04 05:49:43;;;;;;;;;;;10.50;95.40;;;;;;4996170;28;19921;-88
2022/01/04 05:52:10;;;;;;;;;;;10.50;95.30;;;;;;4971529;28;20202;-87
2022/01/04 05:54:37;;;;;;;;;;;10.50;95.40;;;;;;4985352;28;20259;-88
2022/01/04 05:57:04;;;;;;;;;;;10.50;95.40;;;;;;4984298;28;19921;-88
2022/01/04 05:59:31;;;;;;;;;;;10.50;95.40;;;;;;4989237;28;19920;-88
2022/01/04 06:01:58;;;;;;;;;;;10.50;95.40;;;;;;4983523;28;19922;-87
2022/01/04 06:04:25;;;;;;;;;;;10.50;95.40;;;;;;4968002;28;19914;-87
2022/01/04 06:06:52;;;;;;;;;;;10.50;95.40;;;;;;4979509;28;19913;-87
2022/01/04 06:09:24;;;;;;;;;;;10.50;95.40;;;;;;4973350;28;19913;-87
2022/01/04 06:17:10;;;;;;;;;;;10.40;95.40;;;;;;4997104;28;19940;-87
2022/01/04 06:19:38;;;;;;;;;;;10.50;95.40;;;;;;4994945;28;19914;-88
2022/01/04 06:22:05;;;;;;;;;;;10.50;95.40;;;;;;4981658;28;19929;-87
2022/01/04 06:24:32;;;;;;;;;;;10.40;95.40;;;;;;4977862;28;19924;-87
2022/01/04 06:26:59;;;;;;;;;;;10.40;95.40;;;;;;4992717;28;19914;-87
2022/01/04 06:29:26;;;;;;;;;;;10.40;95.40;;;;;;4979936;28;19921;-87
2022/01/04 06:31:53;;;;;;;;;;;10.40;95.40;;;;;;4975690;28;19953;-87
2022/01/04 06:34:20;;;;;;;;;;;10.40;95.40;;;;;;4988524;28;19913;-87
2022/01/04 06:36:47;;;;;;;;;;;10.40;95.40;;;;;;5001229;28;20095;-87
2022/01/04 06:39:13;;;;;;;;;;;10.40;95.50;;;;;;4993688;28;20311;-88
2022/01/04 06:41:40;;;;;;;;;;;10.30;95.40;;;;;;4977450;28;19944;-87
2022/01/04 06:44:07;;;;;;;;;;;10.40;95.50;;;;;;4991628;28;20385;-87
2022/01/04 06:46:34;;;;;;;;;;;10.30;95.40;;;;;;4990937;28;20290;-88
2022/01/04 06:49:01;;;;;;;;;;;10.30;95.40;;;;;;4961061;28;20237;-87
2022/01/04 06:51:28;;;;;;;;;;;10.30;95.50;;;;;;4981721;28;19936;-87
2022/01/04 06:53:55;;;;;;;;;;;10.30;95.40;;;;;;4981344;28;20122;-88
2022/01/04 06:56:23;;;;;;;;;;;10.30;95.50;;;;;;4952205;28;19929;-88
2022/01/04 06:58:49;;;;;;;;;;;10.30;95.50;;;;;;4992663;28;19917;-87
2022/01/04 07:01:16;;;;;;;;;;;10.30;95.50;;;;;;4989319;28;19933;-87
2022/01/04 07:03:43;;;;;;;;;;;10.30;95.50;;;;;;4974851;28;19920;-88
2022/01/04 07:06:10;;;;;;;;;;;10.30;95.50;;;;;;4985102;28;19920;-88
2022/01/04 07:08:37;;;;;;;;;;;10.30;95.50;;;;;;4984540;28;20369;-88
2022/01/04 07:11:04;;;;;;;;;;;10.30;95.50;;;;;;4981184;28;19922;-88
2022/01/04 07:13:31;;;;;;;;;;;10.30;95.50;;;;;;4986729;28;20282;-87
2022/01/04 07:15:57;;;;;;;;;;;10.30;95.50;;;;;;4994787;28;20095;-87
2022/01/04 07:18:24;;;;;;;;;;;10.30;95.50;;;;;;4996529;28;19913;-87
2022/01/04 07:20:51;;;;;;;;;;;10.30;95.50;;;;;;4990806;28;20090;-87
2022/01/04 07:23:18;;;;;;;;;;;10.30;95.50;;;;;;5000468;28;19928;-88
2022/01/04 07:25:45;;;;;;;;;;;10.30;95.50;;;;;;4972303;28;20975;-88
2022/01/04 07:28:12;;;;;;;;;;;10.30;95.50;;;;;;4986402;28;19911;-88
2022/01/04 07:30:39;;;;;;;;;;;10.30;95.50;;;;;;4977289;28;19920;-88
2022/01/04 07:33:06;;;;;;;;;;;10.30;95.50;;;;;;4996662;28;19943;-88
2022/01/04 07:35:32;;;;;;;;;;;10.30;95.50;;;;;;4982530;28;19953;-88
2022/01/04 07:37:59;;;;;;;;;;;10.30;95.50;;;;;;4985270;28;19953;-88
2022/01/04 07:40:26;;;;;;;;;;;10.30;95.50;;;;;;4990685;28;19914;-87
2022/01/04 07:42:57;;;;;;;;;;;10.30;95.50;;;;;;4984948;28;20409;-87
2022/01/04 07:45:24;;;;;;;;;;;10.30;95.50;;;;;;4995105;28;20377;-87
2022/01/04 07:47:51;;;;;;;;;;;10.30;95.40;;;;;;4989990;28;20103;-87
2022/01/04 07:50:17;;;;;;;;;;;10.30;95.40;;;;;;4991706;28;20263;-87
2022/01/04 07:52:44;;;;;;;;;;;10.30;95.50;;;;;;4981126;28;19917;-88
2022/01/04 07:55:11;;;;;;;;;;;10.30;95.50;;;;;;4981797;28;19918;-88
2022/01/04 07:57:40;;;;;;;;;;;10.30;95.50;;;;;;4971091;28;19918;-87
2022/01/04 08:00:07;;;;;;;;;;;10.30;95.50;;;;;;4991346;28;19921;-87
2022/01/04 08:02:34;;;;;;;;;;;10.30;95.60;;;;;;4995359;28;20275;-87
2022/01/04 08:05:01;;;;;;;;;;;10.30;95.60;;;;;;4976051;28;20513;-86
2022/01/04 08:07:28;;;;;;;;;;;10.30;95.60;;;;;;4988510;28;19914;-87
2022/01/04 08:09:56;;;;;;;;;;;10.30;95.60;;;;;;4979707;28;19913;-87
2022/01/04 08:12:23;;;;;;;;;;;10.30;95.60;;;;;;4978707;28;19918;-86
2022/01/04 08:14:50;;;;;;;;;;;10.40;95.60;;;;;;4990910;28;19917;-87
2022/01/04 08:17:16;;;;;;;;;;;10.40;95.60;;;;;;4996449;28;19918;-87
2022/01/04 08:19:43;;;;;;;;;;;10.40;95.60;;;;;;4981138;28;19923;-87
2022/01/04 08:22:10;;;;;;;;;;;10.40;95.60;;;;;;5000201;28;19939;-87
2022/01/04 08:24:37;;;;;;;;;;;10.40;95.50;;;;;;4990812;28;20014;-87
2022/01/04 08:27:04;;;;;;;;;;;10.40;95.50;;;;;;4990722;28;20208;-87
2022/01/04 08:29:31;;;;;;;;;;;10.40;95.40;;;;;;4976695;28;19924;-87
2022/01/04 08:31:59;;;;;;;;;;;10.40;95.50;;;;;;4994484;28;20117;-87
2022/01/04 08:34:26;;;;;;;;;;;10.40;95.50;;;;;;4995780;28;19917;-87
2022/01/04 08:36:53;;;;;;;;;;;10.40;95.50;;;;;;4969944;28;19917;-87
2022/01/04 08:39:20;;;;;;;;;;;10.40;95.50;;;;;;4964441;28;19922;-87
2022/01/04 08:41:49;;;;;;;;;;;10.40;95.60;;;;;;4965922;28;20319;-87
2022/01/04 08:44:16;;;;;;;;;;;10.40;95.60;;;;;;4981067;28;20708;-87
2022/01/04 08:46:42;;;;;;;;;;;10.40;95.60;;;;;;4955707;28;19923;-86
2022/01/04 08:49:09;;;;;;;;;;;10.40;95.60;;;;;;4987862;28;19917;-86
2022/01/04 08:51:36;;;;;;;;;;;10.40;95.60;;;;;;4987706;28;19913;-86
2022/01/04 08:54:04;;;;;;;;;;;10.40;95.60;;;;;;4986113;28;20059;-87
2022/01/04 08:56:31;;;;;;;;;;;10.50;95.60;;;;;;4973192;28;19913;-87
2022/01/04 08:58:58;;;;;;;;;;;10.50;95.50;;;;;;4969182;28;20930;-87
2022/01/04 09:01:25;;;;;;;;;;;10.50;95.60;;;;;;4986542;28;19917;-88
2022/01/04 09:03:52;;;;;;;;;;;10.50;95.50;;;;;;4980088;28;19917;-88
2022/01/04 09:06:21;;;;;;;;;;;10.50;95.60;;;;;;4987167;28;19917;-86
2022/01/04 09:08:50;;;;;;;;;;;10.50;95.60;;;;;;4981721;28;20113;-86
2022/01/04 09:11:21;;;;;;;;;;;10.60;95.60;;;;;;4968909;28;19920;-86
2022/01/04 09:13:49;;;;;;;;;;;10.60;95.60;;;;;;4934828;28;21140;-87
2022/01/04 09:18:43;;;;;;;;;;;10.60;95.60;;;;;;4991820;28;19922;-87
2022/01/04 09:21:10;;;;;;;;;;;10.60;95.60;;;;;;5000130;28;20274;-89
2022/01/04 09:23:37;;;;;;;;;;;10.60;95.60;;;;;;4990587;28;19939;-87
2022/01/04 09:26:04;;;;;;;;;;;10.60;95.60;;;;;;4979708;28;19914;-87
2022/01/04 09:28:31;;;;;;;;;;;10.60;95.60;;;;;;4963054;28;19918;-87
2022/01/04 09:30:58;;;;;;;;;;;10.60;95.50;;;;;;4971792;28;20008;-88
2022/01/04 09:33:25;;;;;;;;;;;10.70;95.50;;;;;;4970294;28;19917;-87
2022/01/04 09:35:53;;;;;;;;;;;10.70;95.60;;;;;;4989045;28;19955;-87
2022/01/04 09:38:20;;;;;;;;;;;10.70;95.60;;;;;;5001556;28;19921;-87
2022/01/04 09:40:49;;;;;;;;;;;10.70;95.50;;;;;;4986705;28;20416;-88
2022/01/04 09:43:16;;;;;;;;;;;10.70;95.50;;;;;;4983331;28;19917;-88
2022/01/04 09:45:43;;;;;;;;;;;10.70;95.50;;;;;;4976494;28;19914;-87
2022/01/04 09:48:10;;;;;;;;;;;10.70;95.50;;;;;;4994212;28;19914;-88
2022/01/04 09:50:38;;;;;;;;;;;10.80;95.60;;;;;;4996775;28;20036;-86
2022/01/04 09:53:09;;;;;;;;;;;10.80;95.60;;;;;;4993594;28;19913;-87
2022/01/04 09:55:42;;;;;;;;;;;10.80;95.60;;;;;;4986875;28;20770;-87
2022/01/04 09:58:10;;;;;;;;;;;10.80;95.60;;;;;;4984680;28;19921;-89
2022/01/04 10:00:37;;;;;;;;;;;10.80;95.60;;;;;;4986173;28;19922;-88
2022/01/04 10:03:09;;;;;;;;;;;10.80;95.60;;;;;;4985016;28;19928;-86
2022/01/04 10:05:36;;;;;;;;;;;10.80;95.50;;;;;;4992519;28;20392;-88
2022/01/04 10:08:05;;;;;;;;;;;10.80;95.60;;;;;;4990961;28;20099;-87
2022/01/04 10:10:32;;;;;;;;;;;10.80;95.60;;;;;;4999531;28;19920;-87
2022/01/04 10:13:04;;;;;;;;;;;10.80;95.50;;;;;;4986768;28;20106;-88
2022/01/04 10:15:33;;;;;;;;;;;10.90;95.60;;;;;;4980408;28;19918;-87
2022/01/04 10:18:12;;;;;;;;;;;10.90;95.60;;;;;;4959975;28;19921;-88
2022/01/04 10:20:40;;;;;;;;;;;10.90;95.30;;;;;;5010128;28;20289;-87
2022/01/04 10:23:11;;;;;;;;;;;10.90;94.90;;;;;;4982657;28;19926;-87
2022/01/04 10:25:38;;;;;;;;;;;10.90;95.10;;;;;;5004633;28;20286;-88
2022/01/04 10:28:05;;;;;;;;;;;10.90;95.30;;;;;;4978400;28;19917;-88
2022/01/04 10:30:36;;;;;;;;;;;10.90;95.20;;;;;;4987993;28;19920;-88
2022/01/04 10:33:13;;;;;;;;;;;10.90;95.40;;;;;;4994638;28;20458;-87
2022/01/04 10:35:42;;;;;;;;;;;10.90;95.40;;;;;;4993651;28;19922;-87
2022/01/04 10:38:15;;;;;;;;;;;11.00;95.50;;;;;;4970996;28;19917;-87
2022/01/04 10:40:46;;;;;;;;;;;11.00;95.50;;;;;;4995436;28;19913;-87
2022/01/04 10:43:17;;;;;;;;;;;11.00;95.50;;;;;;4994629;28;19913;-88
2022/01/04 10:45:45;;;;;;;;;;;11.00;95.40;;;;;;4974793;28;20014;-87
2022/01/04 10:48:15;;;;;;;;;;;11.00;95.10;;;;;;4979321;28;19914;-88
2022/01/04 10:50:42;;;;;;;;;;;11.00;95.20;;;;;;4983523;28;20429;-87
2022/01/04 10:53:14;;;;;;;;;;;11.00;95.20;;;;;;4990202;28;20389;-87
2022/01/04 10:55:41;;;;;;;;;;;11.10;95.20;;;;;;5009601;28;19914;-88
2022/01/04 10:58:17;;;;;;;;;;;11.10;95.30;;;;;;4986228;28;20286;-88
2022/01/04 11:00:52;;;;;;;;;;;11.10;95.40;;;;;;4959452;28;20227;-87
2022/01/04 11:03:23;;;;;;;;;;;11.10;95.50;;;;;;4978477;28;19914;-88
2022/01/04 11:05:54;;;;;;;;;;;11.20;95.50;;;;;;4986274;28;20095;-88
2022/01/04 11:08:21;;;;;;;;;;;11.10;95.10;;;;;;4977796;28;19914;-88
2022/01/04 11:10:49;;;;;;;;;;;11.20;95.20;;;;;;4991707;28;20094;-87
2022/01/04 11:13:16;;;;;;;;;;;11.20;95.30;;;;;;4989766;28;19914;-88
2022/01/04 11:15:43;;;;;;;;;;;11.20;95.30;;;;;;4977708;28;22162;-88
2022/01/04 11:18:10;;;;;;;;;;;11.20;95.30;;;;;;4979747;28;19921;-88
2022/01/04 11:20:38;;;;;;;;;;;11.30;95.40;;;;;;4990920;28;19924;-89
2022/01/04 11:23:06;;;;;;;;;;;11.30;95.40;;;;;;4978295;28;19917;-87
2022/01/04 11:25:32;;;;;;;;;;;11.30;95.30;;;;;;4993203;28;19917;-87
2022/01/04 11:28:01;;;;;;;;;;;11.30;95.20;;;;;;4987169;28;20266;-86
2022/01/04 11:30:36;;;;;;;;;;;11.30;95.00;;;;;;5004221;28;19914;-87
2022/01/04 11:33:05;;;;;;;;;;;11.30;95.10;;;;;;4989461;28;19922;-88
2022/01/04 11:35:32;;;;;;;;;;;11.30;95.20;;;;;;4972870;28;19933;-87
2022/01/04 11:38:00;;;;;;;;;;;11.30;95.10;;;;;;4994290;28;20450;-87
2022/01/04 11:40:39;;;;;;;;;;;11.30;95.10;;;;;;4991823;28;20290;-88
2022/01/04 11:43:22;;;;;;;;;;;11.30;95.10;;;;;;5000722;28;20040;-87
2022/01/04 11:45:50;;;;;;;;;;;11.40;95.20;;;;;;5002778;28;20111;-87
2022/01/04 11:48:25;;;;;;;;;;;11.40;95.30;;;;;;4983515;28;19928;-87
2022/01/04 11:50:53;;;;;;;;;;;11.40;94.90;;;;;;4993457;28;20114;-88
2022/01/04 11:53:20;;;;;;;;;;;11.40;95.00;;;;;;5001169;28;19922;-88
2022/01/04 11:55:49;;;;;;;;;;;11.40;95.10;;;;;;4998559;28;19935;-87
2022/01/04 11:58:18;;;;;;;;;;;11.40;95.00;;;;;;4988767;28;19922;-88
2022/01/04 12:00:45;;;;;;;;;;;11.40;95.10;;;;;;4990546;28;20446;-86
2022/01/04 12:03:14;;;;;;;;;;;11.40;95.10;;;;;;4967167;28;19913;-88
2022/01/04 12:05:56;;;;;;;;;;;11.40;95.10;;;;;;4968557;28;19921;-86
2022/01/04 12:08:24;;;;;;;;;;;11.40;95.20;;;;;;4965079;28;19922;-87
2022/01/04 12:10:52;;;;;;;;;;;11.40;95.10;;;;;;4980084;28;19944;-88
2022/01/04 12:13:20;;;;;;;;;;;11.40;95.20;;;;;;4989769;28;20106;-88
2022/01/04 12:15:57;;;;;;;;;;;11.40;95.00;;;;;;4986079;28;19914;-88
2022/01/04 12:18:34;;;;;;;;;;;11.40;95.10;;;;;;4985445;28;19914;-88
2022/01/04 12:21:02;;;;;;;;;;;11.40;95.00;;;;;;4975452;28;19924;-88
2022/01/04 12:23:35;;;;;;;;;;;11.50;94.60;;;;;;4993335;28;19957;-87
2022/01/04 12:26:02;;;;;;;;;;;11.50;94.80;;;;;;4994489;28;19928;-88
2022/01/04 12:28:33;;;;;;;;;;;11.40;95.00;;;;;;4991781;28;20182;-88
2022/01/04 12:31:12;;;;;;;;;;;11.50;95.10;;;;;;4992176;28;19920;-88
2022/01/04 12:33:43;;;;;;;;;;;11.50;95.20;;;;;;4986787;28;19913;-88
2022/01/04 12:36:11;;;;;;;;;;;11.50;95.10;;;;;;4971326;28;19929;-88
2022/01/04 12:38:38;;;;;;;;;;;11.60;95.20;;;;;;4986258;28;19923;-88
2022/01/04 12:41:05;;;;;;;;;;;11.60;95.40;;;;;;4970958;28;20735;-88
2022/01/04 12:43:32;;;;;;;;;;;11.60;95.40;;;;;;5001033;28;20397;-87
2022/01/04 12:46:00;;;;;;;;;;;11.70;95.40;;;;;;4995175;28;20208;-88
2022/01/04 12:48:46;;;;;;;;;;;11.70;95.40;;;;;;4984230;28;20157;-88
2022/01/04 12:51:23;;;;;;;;;;;11.70;95.40;;;;;;4986785;28;19940;-87
2022/01/04 12:53:51;;;;;;;;;;;11.70;95.10;;;;;;4970139;28;19913;-88
2022/01/04 12:56:18;;;;;;;;;;;11.80;95.00;;;;;;4989191;28;20421;-87
2022/01/04 12:58:45;;;;;;;;;;;11.70;94.90;;;;;;4988503;28;19917;-90
2022/01/04 13:01:12;;;;;;;;;;;11.70;95.00;;;;;;4994878;28;20129;-87
2022/01/04 13:03:39;;;;;;;;;;;11.70;94.60;;;;;;5001739;28;19917;-87
2022/01/04 13:06:06;;;;;;;;;;;11.70;94.60;;;;;;4995716;28;19928;-88
2022/01/04 13:08:35;;;;;;;;;;;11.70;94.50;;;;;;4978950;28;20282;-87
2022/01/04 13:11:03;;;;;;;;;;;11.70;94.30;;;;;;4971728;28;20017;-89
2022/01/04 13:13:32;;;;;;;;;;;11.70;94.50;;;;;;4980635;28;19922;-87
2022/01/04 13:16:18;;;;;;;;;;;11.70;94.60;;;;;;4976641;28;19914;-87
2022/01/04 13:18:45;;;;;;;;;;;11.70;94.50;;;;;;4997983;28;19922;-88
2022/01/04 13:21:11;;;;;;;;;;;11.70;94.60;;;;;;4990111;28;19928;-88
2022/01/04 13:23:39;;;;;;;;;;;11.70;94.70;;;;;;4987060;28;19918;-88
2022/01/04 13:26:08;;;;;;;;;;;11.70;94.50;;;;;;4996792;28;20098;-87
2022/01/04 13:28:36;;;;;;;;;;;11.70;94.50;;;;;;4981143;28;19914;-88
2022/01/04 13:31:03;;;;;;;;;;;11.70;94.70;;;;;;4982379;28;20122;-87
2022/01/04 13:33:32;;;;;;;;;;;11.70;94.40;;;;;;5010080;28;19992;-87
2022/01/04 13:35:59;;;;;;;;;;;11.60;94.40;;;;;;4974284;28;19928;-88
2022/01/04 13:38:27;;;;;;;;;;;11.60;94.60;;;;;;4985092;28;20243;-87
2022/01/04 13:41:01;;;;;;;;;;;11.70;94.30;;;;;;4982520;28;19917;-88
2022/01/04 13:43:29;;;;;;;;;;;11.60;94.50;;;;;;4968998;28;20130;-87
2022/01/04 13:45:58;;;;;;;;;;;11.70;94.50;;;;;;4986741;28;19924;-87
2022/01/04 13:48:29;;;;;;;;;;;11.70;94.10;;;;;;4995774;28;19921;-88
2022/01/04 13:51:22;;;;;;;;;;;11.60;94.20;;;;;;4979686;28;19913;-88
2022/01/04 13:53:52;;;;;;;;;;;11.60;94.40;;;;;;5000423;28;20581;-88
2022/01/04 13:56:20;;;;;;;;;;;11.60;94.50;;;;;;4966946;28;20426;-88
2022/01/04 13:58:52;;;;;;;;;;;11.70;94.60;;;;;;4981778;28;20721;-87
2022/01/04 14:01:34;;;;;;;;;;;11.60;94.90;;;;;;4974368;28;20023;-88
2022/01/04 14:04:13;;;;;;;;;;;11.70;94.20;;;;;;4982189;28;20290;-88
2022/01/04 14:06:43;;;;;;;;;;;11.60;93.80;;;;;;4991199;28;19922;-89
2022/01/04 14:09:19;;;;;;;;;;;11.60;94.10;;;;;;4994731;28;20421;-87
2022/01/04 14:11:51;;;;;;;;;;;11.60;94.20;;;;;;4981702;28;19944;-87
2022/01/04 14:14:23;;;;;;;;;;;11.50;94.70;;;;;;4968560;28;20482;-88
2022/01/04 14:17:02;;;;;;;;;;;11.50;94.50;;;;;;4970936;28;19914;-88
2022/01/04 14:19:30;;;;;;;;;;;11.50;94.10;;;;;;4990186;28;20585;-87
2022/01/04 14:21:59;;;;;;;;;;;11.50;94.10;;;;;;4979332;28;19935;-87
2022/01/04 14:24:35;;;;;;;;;;;11.50;94.00;;;;;;5003927;28;20027;-88
2022/01/04 14:27:03;;;;;;;;;;;11.40;94.10;;;;;;4965995;28;20274;-88
2022/01/04 14:29:31;;;;;;;;;;;11.40;94.30;;;;;;4988232;28;20121;-88
2022/01/04 14:32:02;;;;;;;;;;;11.30;94.30;;;;;;4976651;28;19917;-88
2022/01/04 14:34:29;;;;;;;;;;;11.30;94.40;;;;;;4989277;28;20118;-88
2022/01/04 14:36:58;;;;;;;;;;;11.30;94.40;;;;;;4981073;28;19917;-88